sensor_id;sensor_type;location;lat;lon;timestamp;P1;durP1;ratioP1;P2;durP2;ratioP2
9524;SDS011;15940;48.734;9.112;2022-07-18T00:00:09;2.63;;;1.90;;
9524;SDS011;15940;48.734;9.112;2022-07-18T00:02:37;2.33;;;1.80;;
9524;SDS011;15940;48.734;9.112;2022-07-18T00:05:04;2.80;;;1.90;;
9524;SDS011;15940;48.734;9.112;2022-07-18T00:07:33;2.20;;;2.00;;
9524;SDS011;15940;48.734;9.112;2022-07-18T00:10:00;3.97;;;1.83;;
9524;SDS011;15940;48.734;9.112;2022-07-18T00:12:27;2.10;;;1.87;;
9524;SDS011;15940;48.734;9.112;2022-07-18T00:14:54;1.80;;;1.70;;
9524;SDS011;15940;48.734;9.112;2022-07-18T00:17:21;2.50;;;1.80;;
9524;SDS011;15940;48.734;9.112;2022-07-18T00:19:48;2.40;;;1.80;;
9524;SDS011;15940;48.734;9.112;2022-07-18T00:22:15;6.00;;;2.03;;
9524;SDS011;15940;48.734;9.112;2022-07-18T00:24:43;1.67;;;1.53;;
9524;SDS011;15940;48.734;9.112;2022-07-18T00:27:10;3.77;;;2.07;;
9524;SDS011;15940;48.734;9.112;2022-07-18T00:29:37;1.50;;;1.40;;
9524;SDS011;15940;48.734;9.112;2022-07-18T00:32:05;5.90;;;1.80;;
9524;SDS011;15940;48.734;9.112;2022-07-18T00:34:34;1.83;;;1.70;;
9524;SDS011;15940;48.734;9.112;2022-07-18T00:37:02;2.97;;;1.70;;
9524;SDS011;15940;48.734;9.112;2022-07-18T00:39:29;3.63;;;1.90;;
9524;SDS011;15940;48.734;9.112;2022-07-18T00:41:58;2.43;;;1.80;;
9524;SDS011;15940;48.734;9.112;2022-07-18T00:44:26;2.87;;;1.70;;
9524;SDS011;15940;48.734;9.112;2022-07-18T00:46:55;2.87;;;1.57;;
9524;SDS011;15940;48.734;9.112;2022-07-18T00:49:24;4.07;;;1.87;;
9524;SDS011;15940;48.734;9.112;2022-07-18T00:51:51;2.20;;;1.60;;
9524;SDS011;15940;48.734;9.112;2022-07-18T00:54:18;3.73;;;1.80;;
9524;SDS011;15940;48.734;9.112;2022-07-18T00:56:46;5.73;;;1.67;;
9524;SDS011;15940;48.734;9.112;2022-07-18T00:59:17;4.60;;;1.80;;
9524;SDS011;15940;48.734;9.112;2022-07-18T01:01:45;1.90;;;1.70;;
9524;SDS011;15940;48.734;9.112;2022-07-18T01:04:13;1.83;;;1.50;;
9524;SDS011;15940;48.734;9.112;2022-07-18T01:06:42;2.30;;;1.83;;
9524;SDS011;15940;48.734;9.112;2022-07-18T01:09:10;1.63;;;1.53;;
9524;SDS011;15940;48.734;9.112;2022-07-18T01:11:37;1.60;;;1.50;;
9524;SDS011;15940;48.734;9.112;2022-07-18T01:14:05;1.60;;;1.50;;
9524;SDS011;15940;48.734;9.112;2022-07-18T01:16:35;2.33;;;1.37;;
9524;SDS011;15940;48.734;9.112;2022-07-18T01:19:02;2.00;;;1.50;;
9524;SDS011;15940;48.734;9.112;2022-07-18T01:21:31;1.77;;;1.40;;
9524;SDS011;15940;48.734;9.112;2022-07-18T01:23:58;2.90;;;1.70;;
9524;SDS011;15940;48.734;9.112;2022-07-18T01:26:25;2.10;;;1.30;;
9524;SDS011;15940;48.734;9.112;2022-07-18T01:28:52;1.70;;;1.60;;
9524;SDS011;15940;48.734;9.112;2022-07-18T01:31:19;2.53;;;1.70;;
9524;SDS011;15940;48.734;9.112;2022-07-18T01:33:46;1.80;;;1.70;;
9524;SDS011;15940;48.734;9.112;2022-07-18T01:36:13;1.63;;;1.53;;
9524;SDS011;15940;48.734;9.112;2022-07-18T01:38:42;1.87;;;1.67;;
9524;SDS011;15940;48.734;9.112;2022-07-18T01:41:08;1.67;;;1.57;;
9524;SDS011;15940;48.734;9.112;2022-07-18T01:43:39;1.50;;;1.40;;
9524;SDS011;15940;48.734;9.112;2022-07-18T01:46:07;2.40;;;1.63;;
9524;SDS011;15940;48.734;9.112;2022-07-18T01:48:35;1.90;;;1.80;;
9524;SDS011;15940;48.734;9.112;2022-07-18T01:51:04;1.77;;;1.67;;
9524;SDS011;15940;48.734;9.112;2022-07-18T01:53:35;1.57;;;1.33;;
9524;SDS011;15940;48.734;9.112;2022-07-18T01:56:05;1.83;;;1.40;;
9524;SDS011;15940;48.734;9.112;2022-07-18T01:58:33;1.47;;;1.37;;
9524;SDS011;15940;48.734;9.112;2022-07-18T02:01:00;1.60;;;1.33;;
9524;SDS011;15940;48.734;9.112;2022-07-18T02:03:28;2.30;;;1.30;;
9524;SDS011;15940;48.734;9.112;2022-07-18T02:05:55;1.60;;;1.50;;
9524;SDS011;15940;48.734;9.112;2022-07-18T02:08:22;2.03;;;1.50;;
9524;SDS011;15940;48.734;9.112;2022-07-18T02:10:49;2.57;;;1.60;;
9524;SDS011;15940;48.734;9.112;2022-07-18T02:13:17;1.50;;;1.40;;
9524;SDS011;15940;48.734;9.112;2022-07-18T02:15:45;2.77;;;1.43;;
9524;SDS011;15940;48.734;9.112;2022-07-18T02:18:12;1.50;;;1.40;;
9524;SDS011;15940;48.734;9.112;2022-07-18T02:20:39;1.50;;;1.40;;
9524;SDS011;15940;48.734;9.112;2022-07-18T02:23:06;1.53;;;1.40;;
9524;SDS011;15940;48.734;9.112;2022-07-18T02:25:33;2.07;;;1.87;;
9524;SDS011;15940;48.734;9.112;2022-07-18T02:28:00;1.50;;;1.40;;
9524;SDS011;15940;48.734;9.112;2022-07-18T02:30:29;4.03;;;1.77;;
9524;SDS011;15940;48.734;9.112;2022-07-18T02:32:56;1.97;;;1.70;;
9524;SDS011;15940;48.734;9.112;2022-07-18T02:35:23;1.50;;;1.40;;
9524;SDS011;15940;48.734;9.112;2022-07-18T02:37:50;1.27;;;1.17;;
9524;SDS011;15940;48.734;9.112;2022-07-18T02:40:17;2.83;;;1.60;;
9524;SDS011;15940;48.734;9.112;2022-07-18T02:42:43;1.67;;;1.40;;
9524;SDS011;15940;48.734;9.112;2022-07-18T02:45:10;1.50;;;1.40;;
9524;SDS011;15940;48.734;9.112;2022-07-18T02:47:39;2.53;;;1.73;;
9524;SDS011;15940;48.734;9.112;2022-07-18T02:50:06;2.83;;;1.70;;
9524;SDS011;15940;48.734;9.112;2022-07-18T02:52:34;3.00;;;1.60;;
9524;SDS011;15940;48.734;9.112;2022-07-18T02:55:02;1.90;;;1.30;;
9524;SDS011;15940;48.734;9.112;2022-07-18T02:57:29;1.93;;;1.43;;
9524;SDS011;15940;48.734;9.112;2022-07-18T02:59:56;2.17;;;1.63;;
9524;SDS011;15940;48.734;9.112;2022-07-18T03:02:23;2.80;;;1.67;;
9524;SDS011;15940;48.734;9.112;2022-07-18T03:04:52;2.40;;;1.53;;
9524;SDS011;15940;48.734;9.112;2022-07-18T03:07:19;1.70;;;1.33;;
9524;SDS011;15940;48.734;9.112;2022-07-18T03:09:46;1.77;;;1.63;;
9524;SDS011;15940;48.734;9.112;2022-07-18T03:12:13;5.93;;;1.40;;
9524;SDS011;15940;48.734;9.112;2022-07-18T03:14:40;1.60;;;1.50;;
9524;SDS011;15940;48.734;9.112;2022-07-18T03:17:07;2.40;;;1.40;;
9524;SDS011;15940;48.734;9.112;2022-07-18T03:19:34;2.07;;;1.30;;
9524;SDS011;15940;48.734;9.112;2022-07-18T03:22:03;2.60;;;1.40;;
9524;SDS011;15940;48.734;9.112;2022-07-18T03:24:31;3.13;;;1.60;;
9524;SDS011;15940;48.734;9.112;2022-07-18T03:26:58;2.23;;;1.70;;
9524;SDS011;15940;48.734;9.112;2022-07-18T03:29:26;3.47;;;1.60;;
9524;SDS011;15940;48.734;9.112;2022-07-18T03:31:53;3.00;;;1.43;;
9524;SDS011;15940;48.734;9.112;2022-07-18T03:34:20;1.73;;;1.57;;
9524;SDS011;15940;48.734;9.112;2022-07-18T03:36:46;1.40;;;1.30;;
9524;SDS011;15940;48.734;9.112;2022-07-18T03:39:15;3.43;;;1.40;;
9524;SDS011;15940;48.734;9.112;2022-07-18T03:41:42;1.43;;;1.33;;
9524;SDS011;15940;48.734;9.112;2022-07-18T03:44:09;1.40;;;1.30;;
9524;SDS011;15940;48.734;9.112;2022-07-18T03:46:36;1.60;;;1.50;;
9524;SDS011;15940;48.734;9.112;2022-07-18T03:49:03;1.53;;;1.37;;
9524;SDS011;15940;48.734;9.112;2022-07-18T03:51:30;2.60;;;1.40;;
9524;SDS011;15940;48.734;9.112;2022-07-18T03:53:57;1.47;;;1.33;;
9524;SDS011;15940;48.734;9.112;2022-07-18T03:56:26;3.63;;;1.73;;
9524;SDS011;15940;48.734;9.112;2022-07-18T03:58:53;3.10;;;1.50;;
9524;SDS011;15940;48.734;9.112;2022-07-18T04:01:20;1.70;;;1.60;;
9524;SDS011;15940;48.734;9.112;2022-07-18T04:03:46;1.73;;;1.60;;
9524;SDS011;15940;48.734;9.112;2022-07-18T04:06:13;2.37;;;1.80;;
9524;SDS011;15940;48.734;9.112;2022-07-18T04:08:40;4.07;;;1.80;;
9524;SDS011;15940;48.734;9.112;2022-07-18T04:11:07;2.13;;;1.70;;
9524;SDS011;15940;48.734;9.112;2022-07-18T04:13:35;4.90;;;1.47;;
9524;SDS011;15940;48.734;9.112;2022-07-18T04:16:02;2.97;;;1.80;;
9524;SDS011;15940;48.734;9.112;2022-07-18T04:18:29;5.10;;;1.70;;
9524;SDS011;15940;48.734;9.112;2022-07-18T04:20:56;1.43;;;1.40;;
9524;SDS011;15940;48.734;9.112;2022-07-18T04:23:23;2.13;;;1.77;;
9524;SDS011;15940;48.734;9.112;2022-07-18T04:25:50;2.57;;;1.57;;
9524;SDS011;15940;48.734;9.112;2022-07-18T04:28:17;3.07;;;1.70;;
9524;SDS011;15940;48.734;9.112;2022-07-18T04:30:46;2.20;;;1.80;;
9524;SDS011;15940;48.734;9.112;2022-07-18T04:33:13;3.20;;;1.60;;
9524;SDS011;15940;48.734;9.112;2022-07-18T04:35:40;2.20;;;1.80;;
9524;SDS011;15940;48.734;9.112;2022-07-18T04:38:07;2.23;;;1.50;;
9524;SDS011;15940;48.734;9.112;2022-07-18T04:40:35;1.80;;;1.70;;
9524;SDS011;15940;48.734;9.112;2022-07-18T04:43:03;3.33;;;1.73;;
9524;SDS011;15940;48.734;9.112;2022-07-18T04:45:30;2.73;;;1.73;;
9524;SDS011;15940;48.734;9.112;2022-07-18T04:47:59;1.83;;;1.73;;
9524;SDS011;15940;48.734;9.112;2022-07-18T04:50:26;2.20;;;1.80;;
9524;SDS011;15940;48.734;9.112;2022-07-18T04:52:55;3.03;;;2.03;;
9524;SDS011;15940;48.734;9.112;2022-07-18T04:55:23;3.97;;;2.17;;
9524;SDS011;15940;48.734;9.112;2022-07-18T04:57:51;2.63;;;1.67;;
9524;SDS011;15940;48.734;9.112;2022-07-18T05:00:19;4.50;;;2.23;;
9524;SDS011;15940;48.734;9.112;2022-07-18T05:02:49;3.97;;;2.00;;
9524;SDS011;15940;48.734;9.112;2022-07-18T05:05:20;3.50;;;2.10;;
9524;SDS011;15940;48.734;9.112;2022-07-18T05:07:48;2.60;;;2.00;;
9524;SDS011;15940;48.734;9.112;2022-07-18T05:10:17;2.77;;;2.27;;
9524;SDS011;15940;48.734;9.112;2022-07-18T05:12:46;3.60;;;2.50;;
9524;SDS011;15940;48.734;9.112;2022-07-18T05:15:16;2.57;;;2.33;;
9524;SDS011;15940;48.734;9.112;2022-07-18T05:17:45;6.47;;;2.40;;
9524;SDS011;15940;48.734;9.112;2022-07-18T05:20:13;3.53;;;2.00;;
9524;SDS011;15940;48.734;9.112;2022-07-18T05:22:44;2.57;;;1.93;;
9524;SDS011;15940;48.734;9.112;2022-07-18T05:25:12;2.90;;;2.07;;
9524;SDS011;15940;48.734;9.112;2022-07-18T05:27:40;3.30;;;2.17;;
9524;SDS011;15940;48.734;9.112;2022-07-18T05:30:09;2.67;;;2.13;;
9524;SDS011;15940;48.734;9.112;2022-07-18T05:32:39;5.93;;;2.20;;
9524;SDS011;15940;48.734;9.112;2022-07-18T05:35:07;4.83;;;2.10;;
9524;SDS011;15940;48.734;9.112;2022-07-18T05:37:36;3.77;;;1.90;;
9524;SDS011;15940;48.734;9.112;2022-07-18T05:40:06;3.80;;;2.00;;
9524;SDS011;15940;48.734;9.112;2022-07-18T05:42:36;5.07;;;2.40;;
9524;SDS011;15940;48.734;9.112;2022-07-18T05:45:03;5.20;;;2.20;;
9524;SDS011;15940;48.734;9.112;2022-07-18T05:47:32;5.60;;;2.40;;
9524;SDS011;15940;48.734;9.112;2022-07-18T05:49:59;3.70;;;2.20;;
9524;SDS011;15940;48.734;9.112;2022-07-18T05:52:26;5.50;;;2.13;;
9524;SDS011;15940;48.734;9.112;2022-07-18T05:54:53;2.77;;;1.77;;
9524;SDS011;15940;48.734;9.112;2022-07-18T05:57:21;5.33;;;2.00;;
9524;SDS011;15940;48.734;9.112;2022-07-18T05:59:48;6.00;;;2.23;;
9524;SDS011;15940;48.734;9.112;2022-07-18T06:02:15;4.67;;;1.97;;
9524;SDS011;15940;48.734;9.112;2022-07-18T06:04:42;5.37;;;2.10;;
9524;SDS011;15940;48.734;9.112;2022-07-18T06:07:09;4.93;;;2.00;;
9524;SDS011;15940;48.734;9.112;2022-07-18T06:09:36;3.20;;;2.00;;
9524;SDS011;15940;48.734;9.112;2022-07-18T06:12:03;2.30;;;2.10;;
9524;SDS011;15940;48.734;9.112;2022-07-18T06:14:33;2.13;;;1.77;;
9524;SDS011;15940;48.734;9.112;2022-07-18T06:17:00;3.13;;;2.37;;
9524;SDS011;15940;48.734;9.112;2022-07-18T06:19:27;3.93;;;1.90;;
9524;SDS011;15940;48.734;9.112;2022-07-18T06:21:54;4.43;;;2.00;;
9524;SDS011;15940;48.734;9.112;2022-07-18T06:24:20;3.50;;;1.90;;
9524;SDS011;15940;48.734;9.112;2022-07-18T06:26:47;2.13;;;1.77;;
9524;SDS011;15940;48.734;9.112;2022-07-18T06:29:15;2.17;;;2.00;;
9524;SDS011;15940;48.734;9.112;2022-07-18T06:31:44;3.73;;;2.20;;
9524;SDS011;15940;48.734;9.112;2022-07-18T06:34:11;15.43;;;2.60;;
9524;SDS011;15940;48.734;9.112;2022-07-18T06:36:38;4.60;;;2.00;;
9524;SDS011;15940;48.734;9.112;2022-07-18T06:39:05;5.90;;;2.00;;
9524;SDS011;15940;48.734;9.112;2022-07-18T06:41:35;5.47;;;2.33;;
9524;SDS011;15940;48.734;9.112;2022-07-18T06:44:04;3.67;;;1.70;;
9524;SDS011;15940;48.734;9.112;2022-07-18T06:46:31;5.83;;;2.13;;
9524;SDS011;15940;48.734;9.112;2022-07-18T06:48:59;6.90;;;2.00;;
9524;SDS011;15940;48.734;9.112;2022-07-18T06:51:26;2.20;;;1.97;;
9524;SDS011;15940;48.734;9.112;2022-07-18T06:53:54;3.63;;;1.80;;
9524;SDS011;15940;48.734;9.112;2022-07-18T06:56:21;2.10;;;1.90;;
9524;SDS011;15940;48.734;9.112;2022-07-18T06:58:48;5.10;;;2.03;;
9524;SDS011;15940;48.734;9.112;2022-07-18T07:01:15;8.67;;;2.20;;
9524;SDS011;15940;48.734;9.112;2022-07-18T07:03:44;4.30;;;2.13;;
9524;SDS011;15940;48.734;9.112;2022-07-18T07:06:13;4.63;;;1.83;;
9524;SDS011;15940;48.734;9.112;2022-07-18T07:08:41;3.63;;;1.77;;
9524;SDS011;15940;48.734;9.112;2022-07-18T07:11:08;4.30;;;2.00;;
9524;SDS011;15940;48.734;9.112;2022-07-18T07:13:35;3.67;;;1.83;;
9524;SDS011;15940;48.734;9.112;2022-07-18T07:16:02;4.47;;;2.30;;
9524;SDS011;15940;48.734;9.112;2022-07-18T07:18:29;2.70;;;1.80;;
9524;SDS011;15940;48.734;9.112;2022-07-18T07:20:56;3.60;;;1.90;;
9524;SDS011;15940;48.734;9.112;2022-07-18T07:23:25;3.47;;;2.10;;
9524;SDS011;15940;48.734;9.112;2022-07-18T07:25:52;5.17;;;2.23;;
9524;SDS011;15940;48.734;9.112;2022-07-18T07:28:19;3.00;;;2.03;;
9524;SDS011;15940;48.734;9.112;2022-07-18T07:30:46;6.70;;;2.20;;
9524;SDS011;15940;48.734;9.112;2022-07-18T07:33:13;4.00;;;2.00;;
9524;SDS011;15940;48.734;9.112;2022-07-18T07:35:40;3.33;;;1.73;;
9524;SDS011;15940;48.734;9.112;2022-07-18T07:38:08;5.33;;;2.00;;
9524;SDS011;15940;48.734;9.112;2022-07-18T07:40:36;5.20;;;1.77;;
9524;SDS011;15940;48.734;9.112;2022-07-18T07:43:04;6.30;;;1.90;;
9524;SDS011;15940;48.734;9.112;2022-07-18T07:45:33;2.87;;;1.70;;
9524;SDS011;15940;48.734;9.112;2022-07-18T07:48:00;6.37;;;2.40;;
9524;SDS011;15940;48.734;9.112;2022-07-18T07:50:27;5.87;;;2.10;;
9524;SDS011;15940;48.734;9.112;2022-07-18T07:52:55;2.50;;;1.90;;
9524;SDS011;15940;48.734;9.112;2022-07-18T07:55:22;6.10;;;2.27;;
9524;SDS011;15940;48.734;9.112;2022-07-18T07:57:51;6.50;;;2.17;;
9524;SDS011;15940;48.734;9.112;2022-07-18T08:00:18;6.07;;;2.10;;
9524;SDS011;15940;48.734;9.112;2022-07-18T08:02:49;2.10;;;1.80;;
9524;SDS011;15940;48.734;9.112;2022-07-18T08:05:18;9.53;;;2.73;;
9524;SDS011;15940;48.734;9.112;2022-07-18T08:07:45;5.87;;;2.20;;
9524;SDS011;15940;48.734;9.112;2022-07-18T08:10:12;3.07;;;1.90;;
9524;SDS011;15940;48.734;9.112;2022-07-18T08:12:40;7.27;;;2.00;;
9524;SDS011;15940;48.734;9.112;2022-07-18T08:15:09;9.17;;;2.20;;
9524;SDS011;15940;48.734;9.112;2022-07-18T08:17:36;6.70;;;2.13;;
9524;SDS011;15940;48.734;9.112;2022-07-18T08:20:04;6.47;;;1.90;;
9524;SDS011;15940;48.734;9.112;2022-07-18T08:22:32;3.83;;;2.10;;
9524;SDS011;15940;48.734;9.112;2022-07-18T08:24:59;3.83;;;2.00;;
9524;SDS011;15940;48.734;9.112;2022-07-18T08:27:27;5.70;;;1.90;;
9524;SDS011;15940;48.734;9.112;2022-07-18T08:29:54;4.23;;;1.83;;
9524;SDS011;15940;48.734;9.112;2022-07-18T08:32:22;5.47;;;2.00;;
9524;SDS011;15940;48.734;9.112;2022-07-18T08:34:49;13.10;;;2.07;;
9524;SDS011;15940;48.734;9.112;2022-07-18T08:37:17;6.67;;;2.00;;
9524;SDS011;15940;48.734;9.112;2022-07-18T08:39:45;6.47;;;2.07;;
9524;SDS011;15940;48.734;9.112;2022-07-18T08:42:12;2.70;;;1.93;;
9524;SDS011;15940;48.734;9.112;2022-07-18T08:44:41;4.17;;;2.20;;
9524;SDS011;15940;48.734;9.112;2022-07-18T08:47:09;3.53;;;1.90;;
9524;SDS011;15940;48.734;9.112;2022-07-18T08:49:39;4.13;;;1.70;;
9524;SDS011;15940;48.734;9.112;2022-07-18T08:52:06;9.00;;;1.97;;
9524;SDS011;15940;48.734;9.112;2022-07-18T08:54:34;2.63;;;1.90;;
9524;SDS011;15940;48.734;9.112;2022-07-18T08:57:02;2.70;;;1.87;;
9524;SDS011;15940;48.734;9.112;2022-07-18T08:59:29;1.70;;;1.60;;
9524;SDS011;15940;48.734;9.112;2022-07-18T09:01:56;3.50;;;1.70;;
9524;SDS011;15940;48.734;9.112;2022-07-18T09:04:33;6.00;;;2.00;;
9524;SDS011;15940;48.734;9.112;2022-07-18T09:07:03;4.40;;;1.90;;
9524;SDS011;15940;48.734;9.112;2022-07-18T09:09:31;6.30;;;1.90;;
9524;SDS011;15940;48.734;9.112;2022-07-18T09:11:59;2.23;;;2.07;;
9524;SDS011;15940;48.734;9.112;2022-07-18T09:14:33;3.30;;;1.80;;
9524;SDS011;15940;48.734;9.112;2022-07-18T09:17:07;1.93;;;1.70;;
9524;SDS011;15940;48.734;9.112;2022-07-18T09:19:38;1.77;;;1.53;;
9524;SDS011;15940;48.734;9.112;2022-07-18T09:22:21;1.73;;;1.60;;
9524;SDS011;15940;48.734;9.112;2022-07-18T09:24:54;4.10;;;1.80;;
9524;SDS011;15940;48.734;9.112;2022-07-18T09:27:29;2.90;;;1.60;;
9524;SDS011;15940;48.734;9.112;2022-07-18T09:30:07;1.63;;;1.53;;
9524;SDS011;15940;48.734;9.112;2022-07-18T09:32:38;1.90;;;1.80;;
9524;SDS011;15940;48.734;9.112;2022-07-18T09:35:07;3.47;;;1.60;;
9524;SDS011;15940;48.734;9.112;2022-07-18T09:37:37;4.20;;;1.77;;
9524;SDS011;15940;48.734;9.112;2022-07-18T09:40:15;8.03;;;2.00;;
9524;SDS011;15940;48.734;9.112;2022-07-18T09:42:48;2.30;;;1.83;;
9524;SDS011;15940;48.734;9.112;2022-07-18T09:45:20;3.57;;;2.10;;
9524;SDS011;15940;48.734;9.112;2022-07-18T09:47:50;6.30;;;1.90;;
9524;SDS011;15940;48.734;9.112;2022-07-18T09:50:19;3.07;;;1.90;;
9524;SDS011;15940;48.734;9.112;2022-07-18T09:53:04;3.00;;;1.87;;
9524;SDS011;15940;48.734;9.112;2022-07-18T09:55:41;2.53;;;1.60;;
9524;SDS011;15940;48.734;9.112;2022-07-18T09:58:10;2.07;;;1.90;;
9524;SDS011;15940;48.734;9.112;2022-07-18T10:00:38;2.37;;;1.57;;
9524;SDS011;15940;48.734;9.112;2022-07-18T10:03:06;1.73;;;1.63;;
9524;SDS011;15940;48.734;9.112;2022-07-18T10:05:35;3.23;;;1.80;;
9524;SDS011;15940;48.734;9.112;2022-07-18T10:08:06;3.03;;;1.60;;
9524;SDS011;15940;48.734;9.112;2022-07-18T10:10:36;3.30;;;1.60;;
9524;SDS011;15940;48.734;9.112;2022-07-18T10:13:06;2.77;;;2.13;;
9524;SDS011;15940;48.734;9.112;2022-07-18T10:15:34;1.73;;;1.60;;
9524;SDS011;15940;48.734;9.112;2022-07-18T10:18:05;2.00;;;1.77;;
9524;SDS011;15940;48.734;9.112;2022-07-18T10:20:35;7.10;;;2.57;;
9524;SDS011;15940;48.734;9.112;2022-07-18T10:23:10;5.53;;;2.00;;
9524;SDS011;15940;48.734;9.112;2022-07-18T10:25:42;1.90;;;1.80;;
9524;SDS011;15940;48.734;9.112;2022-07-18T10:28:10;1.77;;;1.57;;
9524;SDS011;15940;48.734;9.112;2022-07-18T10:30:42;1.37;;;1.33;;
9524;SDS011;15940;48.734;9.112;2022-07-18T10:36:09;1.60;;;1.50;;
9524;SDS011;15940;48.734;9.112;2022-07-18T10:39:02;6.37;;;1.50;;
9524;SDS011;15940;48.734;9.112;2022-07-18T10:41:33;1.50;;;1.30;;
9524;SDS011;15940;48.734;9.112;2022-07-18T10:44:32;1.60;;;1.50;;
9524;SDS011;15940;48.734;9.112;2022-07-18T10:47:04;3.43;;;1.50;;
9524;SDS011;15940;48.734;9.112;2022-07-18T10:55:34;1.80;;;1.70;;
9524;SDS011;15940;48.734;9.112;2022-07-18T10:58:20;2.73;;;1.60;;
9524;SDS011;15940;48.734;9.112;2022-07-18T11:00:49;1.53;;;1.40;;
9524;SDS011;15940;48.734;9.112;2022-07-18T11:03:23;1.50;;;1.40;;
9524;SDS011;15940;48.734;9.112;2022-07-18T11:05:54;2.30;;;1.60;;
9524;SDS011;15940;48.734;9.112;2022-07-18T11:08:22;1.70;;;1.60;;
9524;SDS011;15940;48.734;9.112;2022-07-18T11:11:13;2.17;;;1.97;;
9524;SDS011;15940;48.734;9.112;2022-07-18T11:13:42;2.30;;;1.50;;
9524;SDS011;15940;48.734;9.112;2022-07-18T11:16:16;1.83;;;1.50;;
9524;SDS011;15940;48.734;9.112;2022-07-18T11:21:58;1.60;;;1.50;;
9524;SDS011;15940;48.734;9.112;2022-07-18T11:24:25;1.80;;;1.70;;
9524;SDS011;15940;48.734;9.112;2022-07-18T11:26:54;1.93;;;1.57;;
9524;SDS011;15940;48.734;9.112;2022-07-18T11:29:21;4.10;;;1.60;;
9524;SDS011;15940;48.734;9.112;2022-07-18T11:31:49;1.50;;;1.40;;
9524;SDS011;15940;48.734;9.112;2022-07-18T11:34:18;1.50;;;1.40;;
9524;SDS011;15940;48.734;9.112;2022-07-18T11:36:47;1.70;;;1.60;;
9524;SDS011;15940;48.734;9.112;2022-07-18T11:39:14;1.57;;;1.40;;
9524;SDS011;15940;48.734;9.112;2022-07-18T11:41:55;1.50;;;1.40;;
9524;SDS011;15940;48.734;9.112;2022-07-18T11:44:23;1.77;;;1.67;;
9524;SDS011;15940;48.734;9.112;2022-07-18T11:49:36;2.50;;;1.67;;
9524;SDS011;15940;48.734;9.112;2022-07-18T11:52:05;3.40;;;1.60;;
9524;SDS011;15940;48.734;9.112;2022-07-18T11:54:32;2.83;;;1.50;;
9524;SDS011;15940;48.734;9.112;2022-07-18T11:57:02;1.60;;;1.50;;
9524;SDS011;15940;48.734;9.112;2022-07-18T11:59:36;3.40;;;1.50;;
9524;SDS011;15940;48.734;9.112;2022-07-18T12:02:05;1.50;;;1.50;;
9524;SDS011;15940;48.734;9.112;2022-07-18T12:04:33;1.80;;;1.53;;
9524;SDS011;15940;48.734;9.112;2022-07-18T12:07:13;2.43;;;1.50;;
9524;SDS011;15940;48.734;9.112;2022-07-18T12:09:42;1.50;;;1.40;;
9524;SDS011;15940;48.734;9.112;2022-07-18T12:12:12;1.50;;;1.50;;
9524;SDS011;15940;48.734;9.112;2022-07-18T12:14:40;1.50;;;1.40;;
9524;SDS011;15940;48.734;9.112;2022-07-18T12:17:08;1.50;;;1.40;;
9524;SDS011;15940;48.734;9.112;2022-07-18T12:19:35;2.47;;;1.70;;
9524;SDS011;15940;48.734;9.112;2022-07-18T12:22:05;1.73;;;1.50;;
9524;SDS011;15940;48.734;9.112;2022-07-18T12:24:35;2.83;;;1.63;;
9524;SDS011;15940;48.734;9.112;2022-07-18T12:29:57;1.57;;;1.47;;
9524;SDS011;15940;48.734;9.112;2022-07-18T12:32:38;1.60;;;1.50;;
9524;SDS011;15940;48.734;9.112;2022-07-18T12:35:17;4.83;;;1.50;;
9524;SDS011;15940;48.734;9.112;2022-07-18T12:37:53;1.50;;;1.40;;
9524;SDS011;15940;48.734;9.112;2022-07-18T12:40:22;1.40;;;1.27;;
9524;SDS011;15940;48.734;9.112;2022-07-18T12:43:00;2.47;;;1.50;;
9524;SDS011;15940;48.734;9.112;2022-07-18T12:45:33;3.37;;;1.50;;
9524;SDS011;15940;48.734;9.112;2022-07-18T12:48:01;1.77;;;1.67;;
9524;SDS011;15940;48.734;9.112;2022-07-18T12:50:29;2.67;;;1.50;;
9524;SDS011;15940;48.734;9.112;2022-07-18T12:52:56;1.60;;;1.50;;
9524;SDS011;15940;48.734;9.112;2022-07-18T12:55:23;1.70;;;1.60;;
9524;SDS011;15940;48.734;9.112;2022-07-18T12:57:52;1.70;;;1.50;;
9524;SDS011;15940;48.734;9.112;2022-07-18T13:00:19;1.50;;;1.40;;
9524;SDS011;15940;48.734;9.112;2022-07-18T13:02:46;1.47;;;1.37;;
9524;SDS011;15940;48.734;9.112;2022-07-18T13:05:13;1.43;;;1.33;;
9524;SDS011;15940;48.734;9.112;2022-07-18T13:07:40;2.10;;;1.90;;
9524;SDS011;15940;48.734;9.112;2022-07-18T13:10:07;1.60;;;1.50;;
9524;SDS011;15940;48.734;9.112;2022-07-18T13:12:35;1.60;;;1.50;;
9524;SDS011;15940;48.734;9.112;2022-07-18T13:15:04;1.43;;;1.33;;
9524;SDS011;15940;48.734;9.112;2022-07-18T13:17:32;2.20;;;1.50;;
9524;SDS011;15940;48.734;9.112;2022-07-18T13:20:00;1.70;;;1.60;;
9524;SDS011;15940;48.734;9.112;2022-07-18T13:22:28;1.80;;;1.63;;
9524;SDS011;15940;48.734;9.112;2022-07-18T13:24:56;2.97;;;1.40;;
9524;SDS011;15940;48.734;9.112;2022-07-18T13:27:24;4.33;;;1.70;;
9524;SDS011;15940;48.734;9.112;2022-07-18T13:29:51;1.70;;;1.60;;
9524;SDS011;15940;48.734;9.112;2022-07-18T13:32:19;2.33;;;1.60;;
9524;SDS011;15940;48.734;9.112;2022-07-18T13:34:46;1.60;;;1.50;;
9524;SDS011;15940;48.734;9.112;2022-07-18T13:37:13;3.03;;;1.40;;
9524;SDS011;15940;48.734;9.112;2022-07-18T13:39:40;2.63;;;1.80;;
9524;SDS011;15940;48.734;9.112;2022-07-18T13:42:07;2.20;;;1.60;;
9524;SDS011;15940;48.734;9.112;2022-07-18T13:44:34;1.80;;;1.70;;
9524;SDS011;15940;48.734;9.112;2022-07-18T13:47:01;2.80;;;1.50;;
9524;SDS011;15940;48.734;9.112;2022-07-18T13:49:29;2.37;;;1.40;;
9524;SDS011;15940;48.734;9.112;2022-07-18T13:51:56;1.53;;;1.40;;
9524;SDS011;15940;48.734;9.112;2022-07-18T13:54:24;1.53;;;1.40;;
9524;SDS011;15940;48.734;9.112;2022-07-18T13:56:50;2.53;;;1.50;;
9524;SDS011;15940;48.734;9.112;2022-07-18T13:59:17;1.57;;;1.47;;
9524;SDS011;15940;48.734;9.112;2022-07-18T14:01:44;2.03;;;1.53;;
9524;SDS011;15940;48.734;9.112;2022-07-18T14:04:11;3.63;;;1.60;;
9524;SDS011;15940;48.734;9.112;2022-07-18T14:06:39;2.90;;;1.80;;
9524;SDS011;15940;48.734;9.112;2022-07-18T14:09:06;1.60;;;1.50;;
9524;SDS011;15940;48.734;9.112;2022-07-18T14:11:35;1.57;;;1.50;;
9524;SDS011;15940;48.734;9.112;2022-07-18T14:14:03;2.80;;;1.63;;
9524;SDS011;15940;48.734;9.112;2022-07-18T14:16:30;2.47;;;1.50;;
9524;SDS011;15940;48.734;9.112;2022-07-18T14:18:58;1.60;;;1.50;;
9524;SDS011;15940;48.734;9.112;2022-07-18T14:21:25;2.10;;;1.90;;
9524;SDS011;15940;48.734;9.112;2022-07-18T14:23:53;1.57;;;1.47;;
9524;SDS011;15940;48.734;9.112;2022-07-18T14:26:20;1.60;;;1.50;;
9524;SDS011;15940;48.734;9.112;2022-07-18T14:28:47;3.43;;;1.83;;
9524;SDS011;15940;48.734;9.112;2022-07-18T14:31:14;1.87;;;1.77;;
9524;SDS011;15940;48.734;9.112;2022-07-18T14:33:41;2.00;;;1.50;;
9524;SDS011;15940;48.734;9.112;2022-07-18T14:36:08;2.30;;;1.67;;
9524;SDS011;15940;48.734;9.112;2022-07-18T14:38:35;2.73;;;1.70;;
9524;SDS011;15940;48.734;9.112;2022-07-18T14:41:03;1.80;;;1.70;;
9524;SDS011;15940;48.734;9.112;2022-07-18T14:43:30;1.87;;;1.73;;
9524;SDS011;15940;48.734;9.112;2022-07-18T14:45:57;1.73;;;1.63;;
9524;SDS011;15940;48.734;9.112;2022-07-18T14:48:24;2.73;;;1.70;;
9524;SDS011;15940;48.734;9.112;2022-07-18T14:50:51;2.47;;;1.63;;
9524;SDS011;15940;48.734;9.112;2022-07-18T14:53:18;1.80;;;1.70;;
9524;SDS011;15940;48.734;9.112;2022-07-18T14:55:45;4.47;;;2.00;;
9524;SDS011;15940;48.734;9.112;2022-07-18T14:58:13;3.67;;;1.60;;
9524;SDS011;15940;48.734;9.112;2022-07-18T15:00:40;2.50;;;1.87;;
9524;SDS011;15940;48.734;9.112;2022-07-18T15:03:07;2.00;;;1.70;;
9524;SDS011;15940;48.734;9.112;2022-07-18T15:05:34;2.47;;;1.57;;
9524;SDS011;15940;48.734;9.112;2022-07-18T15:08:01;3.03;;;1.57;;
9524;SDS011;15940;48.734;9.112;2022-07-18T15:10:28;2.10;;;1.70;;
9524;SDS011;15940;48.734;9.112;2022-07-18T15:12:55;2.03;;;1.50;;
9524;SDS011;15940;48.734;9.112;2022-07-18T15:15:24;3.67;;;1.90;;
9524;SDS011;15940;48.734;9.112;2022-07-18T15:17:50;2.03;;;1.77;;
9524;SDS011;15940;48.734;9.112;2022-07-18T15:20:18;1.80;;;1.70;;
9524;SDS011;15940;48.734;9.112;2022-07-18T15:22:44;2.30;;;1.67;;
9524;SDS011;15940;48.734;9.112;2022-07-18T15:25:11;2.83;;;1.90;;